sensor_id;sensor_type;location;lat;lon;timestamp;temperature;humidity
25450;DHT22;13371;52.080;5.624;2023-02-21T00:00:53;10.90;99.90
25450;DHT22;13371;52.080;5.624;2023-02-21T00:03:37;10.90;99.90
25450;DHT22;13371;52.080;5.624;2023-02-21T00:06:21;10.70;99.90
25450;DHT22;13371;52.080;5.624;2023-02-21T00:09:06;10.50;99.90
25450;DHT22;13371;52.080;5.624;2023-02-21T00:11:50;10.40;99.90
25450;DHT22;13371;52.080;5.624;2023-02-21T00:14:36;10.40;99.90
25450;DHT22;13371;52.080;5.624;2023-02-21T00:17:20;10.70;99.90
25450;DHT22;13371;52.080;5.624;2023-02-21T00:20:05;10.70;99.90
25450;DHT22;13371;52.080;5.624;2023-02-21T00:22:49;10.80;99.90
25450;DHT22;13371;52.080;5.624;2023-02-21T00:25:33;10.80;99.90
25450;DHT22;13371;52.080;5.624;2023-02-21T00:28:17;10.70;99.90
25450;DHT22;13371;52.080;5.624;2023-02-21T00:31:01;10.90;99.90
25450;DHT22;13371;52.080;5.624;2023-02-21T00:33:45;10.70;99.90
25450;DHT22;13371;52.080;5.624;2023-02-21T00:36:29;10.60;99.90
25450;DHT22;13371;52.080;5.624;2023-02-21T00:39:13;10.70;99.90
25450;DHT22;13371;52.080;5.624;2023-02-21T00:41:57;10.70;99.90
25450;DHT22;13371;52.080;5.624;2023-02-21T00:44:42;11.00;99.90
25450;DHT22;13371;52.080;5.624;2023-02-21T00:47:26;10.90;99.90
25450;DHT22;13371;52.080;5.624;2023-02-21T00:50:10;10.80;99.90
25450;DHT22;13371;52.080;5.624;2023-02-21T00:52:54;10.80;99.90
25450;DHT22;13371;52.080;5.624;2023-02-21T00:55:38;10.70;99.90
25450;DHT22;13371;52.080;5.624;2023-02-21T00:58:22;10.70;99.90
25450;DHT22;13371;52.080;5.624;2023-02-21T01:01:07;10.80;99.90
25450;DHT22;13371;52.080;5.624;2023-02-21T01:03:51;10.60;99.90
25450;DHT22;13371;52.080;5.624;2023-02-21T01:06:35;10.70;99.90
25450;DHT22;13371;52.080;5.624;2023-02-21T01:09:19;11.00;99.90
25450;DHT22;13371;52.080;5.624;2023-02-21T01:12:04;11.10;99.90
25450;DHT22;13371;52.080;5.624;2023-02-21T01:14:48;10.80;99.90
25450;DHT22;13371;52.080;5.624;2023-02-21T01:17:32;10.80;99.90
25450;DHT22;13371;52.080;5.624;2023-02-21T01:20:17;11.20;99.90
25450;DHT22;13371;52.080;5.624;2023-02-21T01:23:01;11.20;99.90
25450;DHT22;13371;52.080;5.624;2023-02-21T01:25:45;11.30;99.90
25450;DHT22;13371;52.080;5.624;2023-02-21T01:28:29;11.30;99.90
25450;DHT22;13371;52.080;5.624;2023-02-21T01:31:18;11.20;99.90
25450;DHT22;13371;52.080;5.624;2023-02-21T01:34:02;11.30;99.90
25450;DHT22;13371;52.080;5.624;2023-02-21T01:36:47;11.30;99.90
25450;DHT22;13371;52.080;5.624;2023-02-21T01:39:30;11.20;99.90
25450;DHT22;13371;52.080;5.624;2023-02-21T01:42:15;11.10;99.90
25450;DHT22;13371;52.080;5.624;2023-02-21T01:48:15;10.60;99.90
25450;DHT22;13371;52.080;5.624;2023-02-21T01:51:01;10.80;99.90
25450;DHT22;13371;52.080;5.624;2023-02-21T01:53:47;11.10;99.90
25450;DHT22;13371;52.080;5.624;2023-02-21T01:56:31;10.90;99.90
25450;DHT22;13371;52.080;5.624;2023-02-21T01:59:17;11.00;99.90
25450;DHT22;13371;52.080;5.624;2023-02-21T02:02:09;11.00;99.90
25450;DHT22;13371;52.080;5.624;2023-02-21T02:04:56;11.30;99.90
25450;DHT22;13371;52.080;5.624;2023-02-21T02:07:41;11.30;99.90
25450;DHT22;13371;52.080;5.624;2023-02-21T02:10:26;11.30;99.90
25450;DHT22;13371;52.080;5.624;2023-02-21T02:16:11;11.10;99.90
25450;DHT22;13371;52.080;5.624;2023-02-21T02:27:21;11.20;99.90
25450;DHT22;13371;52.080;5.624;2023-02-21T02:35:30;11.40;99.90
25450;DHT22;13371;52.080;5.624;2023-02-21T02:41:03;11.50;99.90
25450;DHT22;13371;52.080;5.624;2023-02-21T02:43:45;11.40;99.90
25450;DHT22;13371;52.080;5.624;2023-02-21T02:46:19;11.50;99.90
25450;DHT22;13371;52.080;5.624;2023-02-21T02:48:52;11.50;99.90
25450;DHT22;13371;52.080;5.624;2023-02-21T02:51:20;11.30;99.90
25450;DHT22;13371;52.080;5.624;2023-02-21T02:53:46;11.40;99.90
25450;DHT22;13371;52.080;5.624;2023-02-21T02:56:13;11.50;99.90
25450;DHT22;13371;52.080;5.624;2023-02-21T02:58:45;11.40;99.90
25450;DHT22;13371;52.080;5.624;2023-02-21T03:01:19;11.40;99.90
25450;DHT22;13371;52.080;5.624;2023-02-21T03:09:25;11.10;99.90
25450;DHT22;13371;52.080;5.624;2023-02-21T03:12:40;11.00;99.90
25450;DHT22;13371;52.080;5.624;2023-02-21T03:14:58;10.90;99.90
25450;DHT22;13371;52.080;5.624;2023-02-21T03:17:27;10.60;99.90
25450;DHT22;13371;52.080;5.624;2023-02-21T03:19:55;10.70;99.90
25450;DHT22;13371;52.080;5.624;2023-02-21T03:22:24;10.90;99.90
25450;DHT22;13371;52.080;5.624;2023-02-21T03:24:52;11.10;99.90
25450;DHT22;13371;52.080;5.624;2023-02-21T03:27:19;10.90;99.90
25450;DHT22;13371;52.080;5.624;2023-02-21T03:29:47;11.10;99.90
25450;DHT22;13371;52.080;5.624;2023-02-21T03:34:42;11.10;99.90
25450;DHT22;13371;52.080;5.624;2023-02-21T03:37:10;11.00;99.90
25450;DHT22;13371;52.080;5.624;2023-02-21T03:39:42;11.00;99.90
25450;DHT22;13371;52.080;5.624;2023-02-21T03:42:08;11.00;99.90
25450;DHT22;13371;52.080;5.624;2023-02-21T03:44:33;11.00;99.90
25450;DHT22;13371;52.080;5.624;2023-02-21T03:46:59;10.80;99.90
25450;DHT22;13371;52.080;5.624;2023-02-21T03:49:24;10.90;99.90
25450;DHT22;13371;52.080;5.624;2023-02-21T03:51:50;10.90;99.90
25450;DHT22;13371;52.080;5.624;2023-02-21T03:54:15;10.80;99.90
25450;DHT22;13371;52.080;5.624;2023-02-21T03:56:41;11.00;99.90
25450;DHT22;13371;52.080;5.624;2023-02-21T03:59:07;10.90;99.90
25450;DHT22;13371;52.080;5.624;2023-02-21T04:01:32;10.90;99.90
25450;DHT22;13371;52.080;5.624;2023-02-21T04:03:58;10.80;99.90
25450;DHT22;13371;52.080;5.624;2023-02-21T04:06:23;10.90;99.90
25450;DHT22;13371;52.080;5.624;2023-02-21T04:08:49;11.00;99.90
25450;DHT22;13371;52.080;5.624;2023-02-21T04:11:19;11.00;99.90
25450;DHT22;13371;52.080;5.624;2023-02-21T04:13:45;11.20;99.90
25450;DHT22;13371;52.080;5.624;2023-02-21T04:16:10;11.20;99.90
25450;DHT22;13371;52.080;5.624;2023-02-21T04:18:36;11.20;99.90
25450;DHT22;13371;52.080;5.624;2023-02-21T04:21:01;11.00;99.90
25450;DHT22;13371;52.080;5.624;2023-02-21T04:23:27;10.90;99.90
25450;DHT22;13371;52.080;5.624;2023-02-21T04:25:52;10.70;99.90
25450;DHT22;13371;52.080;5.624;2023-02-21T04:28:18;11.00;99.90
25450;DHT22;13371;52.080;5.624;2023-02-21T04:30:44;10.90;99.90
25450;DHT22;13371;52.080;5.624;2023-02-21T04:33:10;10.80;99.90
25450;DHT22;13371;52.080;5.624;2023-02-21T04:35:36;10.80;99.90
25450;DHT22;13371;52.080;5.624;2023-02-21T04:38:01;10.60;99.90
25450;DHT22;13371;52.080;5.624;2023-02-21T04:40:27;10.70;99.90
25450;DHT22;13371;52.080;5.624;2023-02-21T04:42:52;10.90;99.90
25450;DHT22;13371;52.080;5.624;2023-02-21T04:45:18;11.00;99.90
25450;DHT22;13371;52.080;5.624;2023-02-21T04:47:44;11.00;99.90
25450;DHT22;13371;52.080;5.624;2023-02-21T04:50:09;11.10;99.90
25450;DHT22;13371;52.080;5.624;2023-02-21T04:52:35;11.00;99.90
25450;DHT22;13371;52.080;5.624;2023-02-21T04:55:00;11.00;99.90
25450;DHT22;13371;52.080;5.624;2023-02-21T04:57:26;10.90;99.90
25450;DHT22;13371;52.080;5.624;2023-02-21T04:59:59;10.80;99.90
25450;DHT22;13371;52.080;5.624;2023-02-21T05:02:26;11.10;99.90
25450;DHT22;13371;52.080;5.624;2023-02-21T05:04:52;11.30;99.90
25450;DHT22;13371;52.080;5.624;2023-02-21T05:07:17;11.40;99.90
25450;DHT22;13371;52.080;5.624;2023-02-21T05:09:43;11.30;99.90
25450;DHT22;13371;52.080;5.624;2023-02-21T05:12:08;11.40;99.90
25450;DHT22;13371;52.080;5.624;2023-02-21T05:14:39;11.20;99.90
25450;DHT22;13371;52.080;5.624;2023-02-21T05:17:06;11.20;99.90
25450;DHT22;13371;52.080;5.624;2023-02-21T05:19:32;11.10;99.90
25450;DHT22;13371;52.080;5.624;2023-02-21T05:22:00;11.00;99.90
25450;DHT22;13371;52.080;5.624;2023-02-21T05:24:27;11.00;99.90
25450;DHT22;13371;52.080;5.624;2023-02-21T05:26:53;10.90;99.90
25450;DHT22;13371;52.080;5.624;2023-02-21T05:29:19;11.10;99.90
25450;DHT22;13371;52.080;5.624;2023-02-21T05:31:45;11.40;99.90
25450;DHT22;13371;52.080;5.624;2023-02-21T05:34:11;11.40;99.90
25450;DHT22;13371;52.080;5.624;2023-02-21T05:36:38;11.60;99.90
25450;DHT22;13371;52.080;5.624;2023-02-21T05:39:04;11.60;99.90
25450;DHT22;13371;52.080;5.624;2023-02-21T05:41:30;11.60;99.90
25450;DHT22;13371;52.080;5.624;2023-02-21T05:43:56;11.50;99.90
25450;DHT22;13371;52.080;5.624;2023-02-21T05:46:31;11.40;99.90
25450;DHT22;13371;52.080;5.624;2023-02-21T05:48:58;11.30;99.90
25450;DHT22;13371;52.080;5.624;2023-02-21T05:51:25;11.10;99.90
25450;DHT22;13371;52.080;5.624;2023-02-21T05:53:51;11.30;99.90
25450;DHT22;13371;52.080;5.624;2023-02-21T05:56:18;11.60;99.90
25450;DHT22;13371;52.080;5.624;2023-02-21T05:58:44;11.80;99.90
25450;DHT22;13371;52.080;5.624;2023-02-21T06:01:10;11.70;99.90
25450;DHT22;13371;52.080;5.624;2023-02-21T06:03:35;11.50;99.90
25450;DHT22;13371;52.080;5.624;2023-02-21T06:06:01;11.60;99.90
25450;DHT22;13371;52.080;5.624;2023-02-21T06:08:26;11.60;99.90
25450;DHT22;13371;52.080;5.624;2023-02-21T06:10:52;11.80;99.90
25450;DHT22;13371;52.080;5.624;2023-02-21T06:13:18;11.60;99.90
25450;DHT22;13371;52.080;5.624;2023-02-21T06:15:43;11.70;99.90
25450;DHT22;13371;52.080;5.624;2023-02-21T06:18:12;11.90;99.90
25450;DHT22;13371;52.080;5.624;2023-02-21T06:20:38;11.70;99.90
25450;DHT22;13371;52.080;5.624;2023-02-21T06:23:04;11.50;99.90
25450;DHT22;13371;52.080;5.624;2023-02-21T06:25:30;11.30;99.90
25450;DHT22;13371;52.080;5.624;2023-02-21T06:27:55;11.30;99.90
25450;DHT22;13371;52.080;5.624;2023-02-21T06:30:21;11.30;99.90
25450;DHT22;13371;52.080;5.624;2023-02-21T06:32:46;11.30;99.90
25450;DHT22;13371;52.080;5.624;2023-02-21T06:35:12;11.30;99.90
25450;DHT22;13371;52.080;5.624;2023-02-21T06:37:37;11.40;99.90
25450;DHT22;13371;52.080;5.624;2023-02-21T06:40:03;10.90;99.90
25450;DHT22;13371;52.080;5.624;2023-02-21T06:42:30;11.00;99.90
25450;DHT22;13371;52.080;5.624;2023-02-21T06:44:55;11.30;99.90
25450;DHT22;13371;52.080;5.624;2023-02-21T06:47:21;11.20;99.90
25450;DHT22;13371;52.080;5.624;2023-02-21T06:49:46;11.10;99.90
25450;DHT22;13371;52.080;5.624;2023-02-21T06:52:12;11.00;99.90
25450;DHT22;13371;52.080;5.624;2023-02-21T06:54:38;11.00;99.90
25450;DHT22;13371;52.080;5.624;2023-02-21T06:57:04;11.00;99.90
25450;DHT22;13371;52.080;5.624;2023-02-21T06:59:30;11.10;99.90
25450;DHT22;13371;52.080;5.624;2023-02-21T07:01:56;11.40;99.90
25450;DHT22;13371;52.080;5.624;2023-02-21T07:04:23;11.30;99.90
25450;DHT22;13371;52.080;5.624;2023-02-21T07:06:49;11.40;99.90
25450;DHT22;13371;52.080;5.624;2023-02-21T07:09:14;11.40;99.90
25450;DHT22;13371;52.080;5.624;2023-02-21T07:11:40;11.20;99.90
25450;DHT22;13371;52.080;5.624;2023-02-21T07:14:06;11.10;99.90
25450;DHT22;13371;52.080;5.624;2023-02-21T07:16:31;11.40;99.90
25450;DHT22;13371;52.080;5.624;2023-02-21T07:18:57;11.30;99.90
25450;DHT22;13371;52.080;5.624;2023-02-21T07:21:25;11.50;99.90
25450;DHT22;13371;52.080;5.624;2023-02-21T07:23:51;11.50;99.90
25450;DHT22;13371;52.080;5.624;2023-02-21T07:26:16;11.30;99.90
25450;DHT22;13371;52.080;5.624;2023-02-21T07:28:42;11.20;99.90
25450;DHT22;13371;52.080;5.624;2023-02-21T07:31:07;11.00;99.90
25450;DHT22;13371;52.080;5.624;2023-02-21T07:33:35;10.90;99.90
25450;DHT22;13371;52.080;5.624;2023-02-21T07:36:01;11.30;99.90
25450;DHT22;13371;52.080;5.624;2023-02-21T07:38:28;11.00;99.90
25450;DHT22;13371;52.080;5.624;2023-02-21T07:40:55;11.10;99.90
25450;DHT22;13371;52.080;5.624;2023-02-21T07:43:21;11.10;99.90
25450;DHT22;13371;52.080;5.624;2023-02-21T07:45:47;11.30;99.90
25450;DHT22;13371;52.080;5.624;2023-02-21T07:48:12;11.50;99.90
25450;DHT22;13371;52.080;5.624;2023-02-21T07:50:40;11.20;99.90
25450;DHT22;13371;52.080;5.624;2023-02-21T07:53:06;11.20;99.90
25450;DHT22;13371;52.080;5.624;2023-02-21T07:55:32;10.80;99.90
25450;DHT22;13371;52.080;5.624;2023-02-21T07:57:58;10.90;99.90
25450;DHT22;13371;52.080;5.624;2023-02-21T08:00:24;10.90;99.90
25450;DHT22;13371;52.080;5.624;2023-02-21T08:02:50;11.00;99.90
25450;DHT22;13371;52.080;5.624;2023-02-21T08:05:18;11.00;99.90
25450;DHT22;13371;52.080;5.624;2023-02-21T08:07:44;11.20;99.90
25450;DHT22;13371;52.080;5.624;2023-02-21T08:10:11;11.20;99.90
25450;DHT22;13371;52.080;5.624;2023-02-21T08:12:36;11.10;99.90
25450;DHT22;13371;52.080;5.624;2023-02-21T08:15:02;11.10;99.90
25450;DHT22;13371;52.080;5.624;2023-02-21T08:17:29;10.80;99.90
25450;DHT22;13371;52.080;5.624;2023-02-21T08:19:55;11.20;99.90
25450;DHT22;13371;52.080;5.624;2023-02-21T08:22:20;11.20;99.90
25450;DHT22;13371;52.080;5.624;2023-02-21T08:24:49;11.30;99.90
25450;DHT22;13371;52.080;5.624;2023-02-21T08:27:15;11.20;99.90
25450;DHT22;13371;52.080;5.624;2023-02-21T08:29:40;11.00;99.90
25450;DHT22;13371;52.080;5.624;2023-02-21T08:32:06;11.00;99.90
25450;DHT22;13371;52.080;5.624;2023-02-21T08:34:32;10.70;99.90
25450;DHT22;13371;52.080;5.624;2023-02-21T08:36:57;10.90;99.90
25450;DHT22;13371;52.080;5.624;2023-02-21T08:39:23;10.90;99.90
25450;DHT22;13371;52.080;5.624;2023-02-21T08:41:49;10.70;99.90
25450;DHT22;13371;52.080;5.624;2023-02-21T08:44:16;10.70;99.90
25450;DHT22;13371;52.080;5.624;2023-02-21T08:46:43;11.00;99.90
25450;DHT22;13371;52.080;5.624;2023-02-21T08:49:09;11.50;99.90
25450;DHT22;13371;52.080;5.624;2023-02-21T08:51:35;11.30;99.90
25450;DHT22;13371;52.080;5.624;2023-02-21T08:54:01;11.40;99.90
25450;DHT22;13371;52.080;5.624;2023-02-21T08:56:28;11.40;99.90
25450;DHT22;13371;52.080;5.624;2023-02-21T08:58:55;11.30;99.90
25450;DHT22;13371;52.080;5.624;2023-02-21T09:01:22;11.40;99.90
25450;DHT22;13371;52.080;5.624;2023-02-21T09:03:48;11.40;99.90
25450;DHT22;13371;52.080;5.624;2023-02-21T09:06:14;10.80;99.90
25450;DHT22;13371;52.080;5.624;2023-02-21T09:08:40;10.80;99.90
25450;DHT22;13371;52.080;5.624;2023-02-21T09:11:06;11.10;99.90
25450;DHT22;13371;52.080;5.624;2023-02-21T09:13:32;11.50;99.90
25450;DHT22;13371;52.080;5.624;2023-02-21T09:15:59;11.50;99.90
25450;DHT22;13371;52.080;5.624;2023-02-21T09:18:26;11.50;99.90
25450;DHT22;13371;52.080;5.624;2023-02-21T09:20:52;11.30;99.90
25450;DHT22;13371;52.080;5.624;2023-02-21T09:23:19;11.00;99.90
25450;DHT22;13371;52.080;5.624;2023-02-21T09:25:48;11.30;99.90
25450;DHT22;13371;52.080;5.624;2023-02-21T09:28:15;11.00;99.90
25450;DHT22;13371;52.080;5.624;2023-02-21T09:30:41;11.30;99.90
25450;DHT22;13371;52.080;5.624;2023-02-21T09:33:07;11.00;99.90
25450;DHT22;13371;52.080;5.624;2023-02-21T09:35:33;10.90;99.90
25450;DHT22;13371;52.080;5.624;2023-02-21T09:37:59;11.00;99.90
25450;DHT22;13371;52.080;5.624;2023-02-21T09:43:50;11.20;99.90
25450;DHT22;13371;52.080;5.624;2023-02-21T09:46:22;11.40;99.90
25450;DHT22;13371;52.080;5.624;2023-02-21T09:48:50;11.70;99.90
25450;DHT22;13371;52.080;5.624;2023-02-21T09:51:17;11.60;99.90
25450;DHT22;13371;52.080;5.624;2023-02-21T09:53:45;11.50;99.90
25450;DHT22;13371;52.080;5.624;2023-02-21T09:56:12;11.40;99.90
25450;DHT22;13371;52.080;5.624;2023-02-21T09:58:43;11.30;99.90
25450;DHT22;13371;52.080;5.624;2023-02-21T10:01:21;11.40;99.90
25450;DHT22;13371;52.080;5.624;2023-02-21T10:12:09;11.30;99.90
25450;DHT22;13371;52.080;5.624;2023-02-21T10:14:54;11.60;99.90
25450;DHT22;13371;52.080;5.624;2023-02-21T10:17:34;11.70;99.90
25450;DHT22;13371;52.080;5.624;2023-02-21T10:20:07;11.60;99.90
25450;DHT22;13371;52.080;5.624;2023-02-21T10:22:38;11.80;99.90
25450;DHT22;13371;52.080;5.624;2023-02-21T10:25:24;11.90;99.90
25450;DHT22;13371;52.080;5.624;2023-02-21T10:27:53;11.50;99.90
25450;DHT22;13371;52.080;5.624;2023-02-21T10:30:35;11.40;99.90
25450;DHT22;13371;52.080;5.624;2023-02-21T10:33:01;11.60;99.90
25450;DHT22;13371;52.080;5.624;2023-02-21T10:35:33;11.60;99.90
25450;DHT22;13371;52.080;5.624;2023-02-21T10:38:01;11.60;99.90
25450;DHT22;13371;52.080;5.624;2023-02-21T10:40:37;11.50;99.90
25450;DHT22;13371;52.080;5.624;2023-02-21T10:43:13;11.60;99.90
25450;DHT22;13371;52.080;5.624;2023-02-21T10:45:52;11.70;99.90
25450;DHT22;13371;52.080;5.624;2023-02-21T10:48:24;11.50;99.90
25450;DHT22;13371;52.080;5.624;2023-02-21T10:50:53;11.70;99.90
25450;DHT22;13371;52.080;5.624;2023-02-21T10:53:34;11.60;99.90
25450;DHT22;13371;52.080;5.624;2023-02-21T10:58:44;12.00;99.90
25450;DHT22;13371;52.080;5.624;2023-02-21T11:01:14;12.10;99.90
25450;DHT22;13371;52.080;5.624;2023-02-21T11:03:46;11.80;99.90
25450;DHT22;13371;52.080;5.624;2023-02-21T11:06:26;11.80;99.90
25450;DHT22;13371;52.080;5.624;2023-02-21T11:08:57;11.70;99.90
25450;DHT22;13371;52.080;5.624;2023-02-21T11:11:38;11.60;99.90
25450;DHT22;13371;52.080;5.624;2023-02-21T11:14:24;11.40;99.90
25450;DHT22;13371;52.080;5.624;2023-02-21T11:17:14;11.30;99.90
25450;DHT22;13371;52.080;5.624;2023-02-21T11:22:37;12.10;99.90
25450;DHT22;13371;52.080;5.624;2023-02-21T11:25:23;12.30;99.90
25450;DHT22;13371;52.080;5.624;2023-02-21T11:33:27;11.70;99.90
25450;DHT22;13371;52.080;5.624;2023-02-21T11:36:09;12.00;99.90
25450;DHT22;13371;52.080;5.624;2023-02-21T11:38:41;11.80;99.90
25450;DHT22;13371;52.080;5.624;2023-02-21T11:41:22;11.70;99.90
25450;DHT22;13371;52.080;5.624;2023-02-21T11:43:52;11.70;99.90
25450;DHT22;13371;52.080;5.624;2023-02-21T11:46:35;11.90;99.90
25450;DHT22;13371;52.080;5.624;2023-02-21T11:49:21;11.70;99.90
25450;DHT22;13371;52.080;5.624;2023-02-21T11:52:10;11.80;99.90
25450;DHT22;13371;52.080;5.624;2023-02-21T11:54:37;11.90;99.90
25450;DHT22;13371;52.080;5.624;2023-02-21T11:57:16;11.80;99.90
25450;DHT22;13371;52.080;5.624;2023-02-21T12:00:16;11.90;99.90
25450;DHT22;13371;52.080;5.624;2023-02-21T12:13:57;12.40;99.90
25450;DHT22;13371;52.080;5.624;2023-02-21T12:19:43;12.20;99.90
25450;DHT22;13371;52.080;5.624;2023-02-21T12:22:33;12.30;99.90
25450;DHT22;13371;52.080;5.624;2023-02-21T12:27:57;11.70;99.90
25450;DHT22;13371;52.080;5.624;2023-02-21T12:33:27;12.00;99.90
25450;DHT22;13371;52.080;5.624;2023-02-21T12:36:03;11.90;99.90
25450;DHT22;13371;52.080;5.624;2023-02-21T12:41:52;11.90;99.90
25450;DHT22;13371;52.080;5.624;2023-02-21T12:44:17;11.60;99.90
25450;DHT22;13371;52.080;5.624;2023-02-21T12:47:05;11.90;99.90
25450;DHT22;13371;52.080;5.624;2023-02-21T12:50:34;12.20;99.90
25450;DHT22;13371;52.080;5.624;2023-02-21T12:53:00;12.00;99.90
25450;DHT22;13371;52.080;5.624;2023-02-21T12:55:51;12.00;99.90
25450;DHT22;13371;52.080;5.624;2023-02-21T13:01:40;12.50;99.90
25450;DHT22;13371;52.080;5.624;2023-02-21T13:04:12;12.70;99.90
25450;DHT22;13371;52.080;5.624;2023-02-21T13:09:41;12.50;99.90
25450;DHT22;13371;52.080;5.624;2023-02-21T13:12:24;12.40;99.90
25450;DHT22;13371;52.080;5.624;2023-02-21T13:14:54;12.50;99.90
25450;DHT22;13371;52.080;5.624;2023-02-21T13:17:24;12.50;99.90
25450;DHT22;13371;52.080;5.624;2023-02-21T13:20:00;12.40;99.90
25450;DHT22;13371;52.080;5.624;2023-02-21T13:28:20;12.50;99.90
25450;DHT22;13371;52.080;5.624;2023-02-21T13:30:50;12.30;99.90
25450;DHT22;13371;52.080;5.624;2023-02-21T13:33:36;12.60;99.90
25450;DHT22;13371;52.080;5.624;2023-02-21T13:39:13;12.90;99.90
25450;DHT22;13371;52.080;5.624;2023-02-21T13:41:45;13.00;99.90
25450;DHT22;13371;52.080;5.624;2023-02-21T13:44:42;12.90;99.90
25450;DHT22;13371;52.080;5.624;2023-02-21T13:47:20;12.80;99.90
25450;DHT22;13371;52.080;5.624;2023-02-21T13:49:53;12.80;99.90
25450;DHT22;13371;52.080;5.624;2023-02-21T14:08:23;12.50;99.90
25450;DHT22;13371;52.080;5.624;2023-02-21T14:10:51;12.60;99.90
25450;DHT22;13371;52.080;5.624;2023-02-21T14:18:42;13.00;99.90
25450;DHT22;13371;52.080;5.624;2023-02-21T14:21:14;13.20;99.90
25450;DHT22;13371;52.080;5.624;2023-02-21T14:26:32;13.00;99.90
25450;DHT22;13371;52.080;5.624;2023-02-21T14:31:50;12.60;99.90
25450;DHT22;13371;52.080;5.624;2023-02-21T14:35:06;12.40;99.90
25450;DHT22;13371;52.080;5.624;2023-02-21T14:39:42;12.00;99.90
25450;DHT22;13371;52.080;5.624;2023-02-21T14:48:02;12.40;99.90
25450;DHT22;13371;52.080;5.624;2023-02-21T14:56:44;12.20;99.90
25450;DHT22;13371;52.080;5.624;2023-02-21T14:59:45;12.40;99.90
25450;DHT22;13371;52.080;5.624;2023-02-21T15:04:58;12.60;99.90
25450;DHT22;13371;52.080;5.624;2023-02-21T15:13:01;12.30;99.90
25450;DHT22;13371;52.080;5.624;2023-02-21T15:15:29;12.50;99.90
25450;DHT22;13371;52.080;5.624;2023-02-21T15:18:00;12.50;99.90
25450;DHT22;13371;52.080;5.624;2023-02-21T15:20:26;12.50;99.90
25450;DHT22;13371;52.080;5.624;2023-02-21T15:23:15;12.60;99.90
25450;DHT22;13371;52.080;5.624;2023-02-21T15:25:42;12.60;99.90
25450;DHT22;13371;52.080;5.624;2023-02-21T15:28:20;12.80;99.90
25450;DHT22;13371;52.080;5.624;2023-02-21T15:31:05;12.60;99.90
25450;DHT22;13371;52.080;5.624;2023-02-21T15:33:39;12.60;99.90
25450;DHT22;13371;52.080;5.624;2023-02-21T15:36:20;12.70;99.90
25450;DHT22;13371;52.080;5.624;2023-02-21T15:39:05;12.90;99.90
25450;DHT22;13371;52.080;5.624;2023-02-21T15:41:36;12.90;99.90
25450;DHT22;13371;52.080;5.624;2023-02-21T15:44:21;12.70;99.90
25450;DHT22;13371;52.080;5.624;2023-02-21T15:46:55;12.70;99.90
25450;DHT22;13371;52.080;5.624;2023-02-21T15:49:26;12.90;99.90
25450;DHT22;13371;52.080;5.624;2023-02-21T15:51:52;12.90;99.90
25450;DHT22;13371;52.080;5.624;2023-02-21T15:54:29;12.80;99.90
25450;DHT22;13371;52.080;5.624;2023-02-21T15:57:04;13.00;99.90
25450;DHT22;13371;52.080;5.624;2023-02-21T15:59:31;13.10;99.90
25450;DHT22;13371;52.080;5.624;2023-02-21T16:04:45;12.80;99.90
25450;DHT22;13371;52.080;5.624;2023-02-21T16:07:40;12.80;99.90
25450;DHT22;13371;52.080;5.624;2023-02-21T16:10:08;12.90;99.90
25450;DHT22;13371;52.080;5.624;2023-02-21T16:12:37;12.90;99.90
25450;DHT22;13371;52.080;5.624;2023-02-21T16:15:23;12.70;99.90
25450;DHT22;13371;52.080;5.624;2023-02-21T16:18:00;12.90;99.90
25450;DHT22;13371;52.080;5.624;2023-02-21T16:20:41;13.00;99.90
25450;DHT22;13371;52.080;5.624;2023-02-21T16:28:35;13.30;99.90
25450;DHT22;13371;52.080;5.624;2023-02-21T16:31:03;13.30;99.90
25450;DHT22;13371;52.080;5.624;2023-02-21T16:33:30;13.00;99.90
25450;DHT22;13371;52.080;5.624;2023-02-21T16:35:57;13.10;99.90
25450;DHT22;13371;52.080;5.624;2023-02-21T16:38:24;12.90;99.90
25450;DHT22;13371;52.080;5.624;2023-02-21T16:40:51;13.00;99.90
25450;DHT22;13371;52.080;5.624;2023-02-21T16:43:21;12.70;99.90
25450;DHT22;13371;52.080;5.624;2023-02-21T16:45:51;12.60;99.90
25450;DHT22;13371;52.080;5.624;2023-02-21T16:48:19;12.60;99.90
25450;DHT22;13371;52.080;5.624;2023-02-21T16:50:47;12.80;99.90
25450;DHT22;13371;52.080;5.624;2023-02-21T16:53:13;12.90;99.90
25450;DHT22;13371;52.080;5.624;2023-02-21T16:55:40;12.90;99.90
25450;DHT22;13371;52.080;5.624;2023-02-21T16:58:28;12.90;99.90
25450;DHT22;13371;52.080;5.624;2023-02-21T17:00:56;13.00;99.90
25450;DHT22;13371;52.080;5.624;2023-02-21T17:03:22;12.90;99.90
25450;DHT22;13371;52.080;5.624;2023-02-21T17:05:50;13.10;99.90
25450;DHT22;13371;52.080;5.624;2023-02-21T17:08:16;12.70;99.90
25450;DHT22;13371;52.080;5.624;2023-02-21T17:10:42;12.70;99.90
25450;DHT22;13371;52.080;5.624;2023-02-21T17:13:07;12.60;99.90
25450;DHT22;13371;52.080;5.624;2023-02-21T17:15:33;12.80;99.90
25450;DHT22;13371;52.080;5.624;2023-02-21T17:17:59;12.80;99.90
25450;DHT22;13371;52.080;5.624;2023-02-21T17:20:25;12.90;99.90
25450;DHT22;13371;52.080;5.624;2023-02-21T17:22:51;13.00;99.90
25450;DHT22;13371;52.080;5.624;2023-02-21T17:25:18;12.90;99.90
25450;DHT22;13371;52.080;5.624;2023-02-21T17:27:44;13.00;99.90
25450;DHT22;13371;52.080;5.624;2023-02-21T17:30:10;13.00;99.90
25450;DHT22;13371;52.080;5.624;2023-02-21T17:32:36;12.90;99.90
25450;DHT22;13371;52.080;5.624;2023-02-21T17:35:03;13.00;99.90
25450;DHT22;13371;52.080;5.624;2023-02-21T17:37:28;13.10;99.90
25450;DHT22;13371;52.080;5.624;2023-02-21T17:39:55;12.40;99.90
25450;DHT22;13371;52.080;5.624;2023-02-21T17:42:21;12.70;99.90
25450;DHT22;13371;52.080;5.624;2023-02-21T17:44:47;12.80;99.90
25450;DHT22;13371;52.080;5.624;2023-02-21T17:47:14;12.60;99.90
25450;DHT22;13371;52.080;5.624;2023-02-21T17:49:42;12.60;99.90
25450;DHT22;13371;52.080;5.624;2023-02-21T17:52:07;12.50;99.90
25450;DHT22;13371;52.080;5.624;2023-02-21T17:54:33;12.60;99.90
25450;DHT22;13371;52.080;5.624;2023-02-21T17:56:58;12.70;99.90
25450;DHT22;13371;52.080;5.624;2023-02-21T17:59:24;12.80;99.90
25450;DHT22;13371;52.080;5.624;2023-02-21T18:01:52;12.60;99.90
25450;DHT22;13371;52.080;5.624;2023-02-21T18:04:18;12.60;99.90
25450;DHT22;13371;52.080;5.624;2023-02-21T18:06:44;12.40;99.90
25450;DHT22;13371;52.080;5.624;2023-02-21T18:09:09;12.70;99.90
25450;DHT22;13371;52.080;5.624;2023-02-21T18:11:35;12.50;99.90
25450;DHT22;13371;52.080;5.624;2023-02-21T18:14:02;12.50;99.90
25450;DHT22;13371;52.080;5.624;2023-02-21T18:16:28;12.60;99.90
25450;DHT22;13371;52.080;5.624;2023-02-21T18:18:54;12.40;99.90
25450;DHT22;13371;52.080;5.624;2023-02-21T18:21:19;12.60;99.90
25450;DHT22;13371;52.080;5.624;2023-02-21T18:23:48;12.80;99.90
25450;DHT22;13371;52.080;5.624;2023-02-21T18:26:14;12.70;99.90
25450;DHT22;13371;52.080;5.624;2023-02-21T18:28:40;12.40;99.90